64.4°F
Current conditions from King Hill
Updated every 5 minutes
 
  Monday September 22, 2014

Observations for Westford

Westford

44° 37' 39"N, 73° 02' 29"W, Elevation 850 ft.
Eastern Time

Hourly observations for the last 72 hours

Date Time Temperature (F) Humi-
dity

(%)
Wind
(mph)
Pressure Rain (in)
Air Dew 6 Hour 1 Hr 3 Hr 6 Hr Day
Alt
(in)
Sea
Level

(mb)
Max Min
21 20:00 64.2 59.9 79.2 64.2 86 Calm 29.48 998.4 0.00
21 19:00 65.5 60.5 84 Calm 29.49 998.5 0.00
21 18:00 69.7 61.1 74 SSW 0 G 2 29.50 998.9 0.00
21 17:00 71.2 61.7 72 WSW 0 G 1 29.50 999.2 0.00
21 16:00 73.7 60.3 63 SSW 4 G 14 29.52 999.8 0.00
21 15:00 75.0 61.1 62 SSW 5 G 17 29.55 1000.8 0.00
21 14:00 79.2 62.7 79.3 62.9 57 SSW 6 G 20 29.58 1001.8 0.00
21 13:00 73.4 62.2 68 SW 6 G 22 29.61 1002.8 0.00
21 12:00 73.0 61.8 68 SSW 5 G 14 29.64 1003.8 0.00
21 11:00 70.9 62.2 74 SW 4 G 18 29.66 1004.3 0.00
21 10:00 67.5 61.1 80 SSW 7 G 22 29.70 1005.8 0.00
21 09:00 66.1 60.5 82 SW 5 G 16 29.73 1006.6 0.00
21 08:00 62.9 58.7 62.9 60.6 86 SSW 4 G 19 29.73 1006.9 0.00
21 07:00 61.6 57.1 85 SSW 3 G 18 29.73 1006.7 0.00
21 06:00 61.2 56.3 84 SSW 6 G 17 29.73 1006.8 0.00
21 05:00 60.9 55.7 83 SW 2 G 17 29.74 1007.1 0.00
21 04:00 61.1 55.6 82 SSW 4 G 17 29.76 1007.9 0.00
21 03:00 61.5 55.6 81 SSW 4 G 14 29.78 1008.5 0.00
21 02:00 61.8 56.9 63.2 61.6 84 SSW 2 G 19 29.81 1009.5 0.00
21 01:00 62.3 57.7 85 SSW 5 G 24 29.84 1010.4 0.00
21 00:00 62.7 57.5 83 SSW 8 G 21 29.85 1010.8 0.00
20 23:00 62.9 57.3 82 SW 5 G 17 29.85 1011.0 0.00
20 22:00 63.2 56.9 80 SSW 5 G 21 29.86 1011.3 0.00
20 21:00 62.9 57.0 81 SSW 5 G 17 29.87 1011.7 0.00
20 20:00 62.4 57.5 66.6 61.8 84 SSW 5 G 13 29.90 1012.4 0.00
20 19:00 62.7 57.5 83 SSW 1 G 11 29.92 1013.2 0.00
20 18:00 63.7 57.8 81 SW 3 G 18 29.93 1013.6 0.00
20 17:00 66.1 58.3 76 SSW 3 G 16 29.92 1013.1 0.00
20 16:00 65.4 57.3 75 SSW 4 G 22 29.93 1013.5 0.00
20 15:00 65.9 57.0 73 SSW 5 G 15 29.95 1014.3 0.00
20 14:00 63.8 55.4 64.9 52.2 74 SSW 7 G 27 29.97 1014.9 0.00
20 13:00 62.7 54.7 75 SSW 7 G 21 30.00 1015.8 0.00
20 12:00 61.0 53.7 77 S 2 G 24 30.01 1016.3 0.00
20 11:00 58.1 52.0 80 SSW 4 G 22 30.04 1017.4 0.00
20 10:00 54.6 49.2 82 SSW 3 G 27 30.08 1018.6 0.00
20 09:00 53.6 48.2 82 SSW 3 G 15 30.10 1019.2 0.00
20 08:00 52.2 46.2 52.2 46.9 80 SSW 5 G 18 30.10 1019.4 0.00
20 07:00 50.7 44.8 80 SSW 7 G 18 30.12 1020.0 0.00
20 06:00 49.9 44.0 80 SSW 5 G 19 30.13 1020.3 0.00
20 05:00 49.7 43.1 78 SSW 7 G 20 30.15 1021.2 0.00
20 04:00 48.7 41.5 76 SSW 6 G 23 30.15 1021.1 0.00
20 03:00 47.9 39.7 73 S 2 G 15 30.18 1022.0 0.00
20 02:00 47.2 39.0 47.2 38.9 73 SSW 2 G 12 30.19 1022.4 0.00
20 01:00 45.0 37.6 75 S 1 G 12 30.19 1022.6 0.00
20 00:00 43.5 36.8 77 SSW 1 G 8 30.20 1022.9 0.00
19 23:00 43.3 36.6 77 SSW 0 G 4 30.21 1023.2 0.00
19 22:00 40.8 36.0 83 SW 0 G 4 30.21 1023.1 0.00
19 21:00 39.1 36.7 91 Calm 30.24 1024.1 0.00
19 20:00 39.6 37.2 57.3 39.6 91 Calm 30.26 1024.6 0.00
19 19:00 42.8 38.3 84 Calm 30.27 1025.2 0.00
19 18:00 55.2 36.9 50 SW 0 G 4 30.26 1024.9 0.00
19 17:00 56.3 38.4 51 WNW 0 G 3 30.27 1025.1 0.00
19 16:00 56.7 36.7 47 WSW 1 G 8 30.30 1026.1 0.00
19 15:00 56.1 33.3 42 W 1 G 4 30.30 1026.1 0.00
19 14:00 53.7 30.6 54.6 30.8 41 ESE 0 G 2 30.31 1026.5 0.00
19 13:00 52.9 30.4 42 W 0 G 1 30.35 1027.7 0.00
19 12:00 52.2 29.2 41 WNW 0 G 3 30.36 1028.1 0.00
19 11:00 49.7 31.3 49 E 0 G 3 30.35 1027.9 0.00
19 10:00 46.6 32.6 58 Calm 30.35 1027.8 0.00
19 09:00 40.8 34.8 79 Calm 30.34 1027.5 0.00
19 08:00 30.8 30.0 32.9 28.6 97 Calm 30.33 1027.2 0.00
19 07:00 28.7 27.7 96 Calm 30.31 1026.6 0.00
19 06:00 29.0 28.0 96 Calm 30.29 1025.8 0.00
19 05:00 29.3 28.3 96 Calm 30.27 1025.1 0.00
19 04:00 29.7 28.4 95 Calm 30.25 1024.4 0.00
19 03:00 30.8 29.5 95 Calm 30.23 1023.7 0.00
19 02:00 32.9 31.1 43.2 32.8 93 Calm 30.21 1023.2 0.00
19 01:00 33.5 31.4 92 Calm 30.19 1022.3 0.00
19 00:00 36.2 33.3 89 Calm 30.17 1021.6 0.01
18 23:00 39.4 34.7 83 NNE 0 G 2 30.15 1021.0 0.01
18 22:00 40.8 34.8 79 N 0 G 7 30.14 1020.6 0.01
18 21:00 42.9 37.8 82 NNE 2 G 9 30.11 1019.7 0.01

Data generated by WxSolution Version 1.8.7.2, Build 2014.02.15.


 
 
Current Radar Loop:

Copyright © WestfordWeather.net 2007-2014. All rights reserved.